IGO121 VOVZ-VTBS
Flight info
| Callsign | IGO121 |
|---|---|
| Flight time | 2h 22m |
| Altitude | 39000 |
| Route | 40LOC DCT POTAS L301 TANEK DCT IBETO WILLA3C |
| Aircraft | A20N/M-SDE2E3FGHIRWXY/LB1 |
Departure
| Time | 2026-04-11 08:36 |
|---|---|
| Airport | Visakhapatnam International Airport (VOVZ) |
Arrival
| Time | 2026-04-11 10:58 |
|---|---|
| Airport | Suvarnabhumi Airport (VTBS) |
| Time | Latitude | Longitude | Altitude | Speed | Heading |
|---|---|---|---|---|---|
| 2026-04-11 08:09 | 17.72714 | 83.22296 | 14 ft | 0 kts | 1° |
| 2026-04-11 08:24 | 17.72711 | 83.22296 | 28 ft | 1 kts | 1° |
| 2026-04-11 08:25 | 17.72705 | 83.22296 | 28 ft | 1 kts | 1° |
| 2026-04-11 08:25 | 17.72697 | 83.22295 | 27 ft | 1 kts | 1° |
| 2026-04-11 08:25 | 17.72689 | 83.22295 | 27 ft | 1 kts | 1° |
| 2026-04-11 08:25 | 17.72681 | 83.22295 | 26 ft | 1 kts | 1° |
| 2026-04-11 08:26 | 17.72673 | 83.22295 | 28 ft | 2 kts | 4° |
| 2026-04-11 08:26 | 17.72661 | 83.22294 | 26 ft | 2 kts | 9° |
| 2026-04-11 08:26 | 17.72649 | 83.22291 | 26 ft | 2 kts | 12° |
| 2026-04-11 08:26 | 17.72637 | 83.22289 | 26 ft | 2 kts | 20° |
| 2026-04-11 08:27 | 17.72627 | 83.22283 | 28 ft | 2 kts | 51° |
| 2026-04-11 08:27 | 17.72622 | 83.22274 | 26 ft | 0 kts | 94° |
| 2026-04-11 08:30 | 17.72621 | 83.22293 | 26 ft | 7 kts | 94° |
| 2026-04-11 08:30 | 17.72615 | 83.22380 | 24 ft | 16 kts | 96° |
| 2026-04-11 08:30 | 17.72581 | 83.22464 | 23 ft | 11 kts | 160° |
| 2026-04-11 08:31 | 17.72498 | 83.22468 | 24 ft | 13 kts | 185° |
| 2026-04-11 08:31 | 17.72409 | 83.22467 | 27 ft | 13 kts | 156° |
| 2026-04-11 08:31 | 17.72385 | 83.22549 | 25 ft | 14 kts | 94° |
| 2026-04-11 08:31 | 17.72375 | 83.22670 | 23 ft | 20 kts | 96° |
| 2026-04-11 08:32 | 17.72355 | 83.22854 | 23 ft | 31 kts | 97° |
| 2026-04-11 08:32 | 17.72324 | 83.23120 | 22 ft | 42 kts | 95° |
| 2026-04-11 08:32 | 17.72306 | 83.23453 | 21 ft | 50 kts | 95° |
| 2026-04-11 08:32 | 17.72274 | 83.23835 | 21 ft | 55 kts | 95° |
| 2026-04-11 08:33 | 17.72238 | 83.24250 | 23 ft | 59 kts | 96° |
| 2026-04-11 08:33 | 17.72200 | 83.24549 | 21 ft | 32 kts | 123° |
| 2026-04-11 08:33 | 17.72149 | 83.24728 | 23 ft | 16 kts | 45° |
| 2026-04-11 08:33 | 17.72197 | 83.24726 | 23 ft | 6 kts | 302° |
| 2026-04-11 08:34 | 17.72205 | 83.24683 | 23 ft | 0 kts | 275° |
| 2026-04-11 08:35 | 17.72216 | 83.24522 | 21 ft | 65 kts | 274° |
| 2026-04-11 08:35 | 17.72282 | 83.23746 | 22 ft | 145 kts | 274° |
| 2026-04-11 08:35 | 17.72414 | 83.22502 | 234 ft | 189 kts | 273° |
| 2026-04-11 08:36 | 17.72604 | 83.21059 | 868 ft | 209 kts | 272° |
| 2026-04-11 08:36 | 17.72780 | 83.19454 | 1569 ft | 234 kts | 273° |
| 2026-04-11 08:36 | 17.72834 | 83.17639 | 2266 ft | 262 kts | 257° |
| 2026-04-11 08:36 | 17.71909 | 83.15965 | 2969 ft | 279 kts | 220° |
| 2026-04-11 08:37 | 17.70091 | 83.15179 | 3715 ft | 295 kts | 185° |
| 2026-04-11 08:37 | 17.68064 | 83.15650 | 4583 ft | 309 kts | 150° |
| 2026-04-11 08:37 | 17.66574 | 83.17238 | 5473 ft | 315 kts | 116° |
| 2026-04-11 08:37 | 17.66035 | 83.19445 | 6448 ft | 314 kts | 95° |
| 2026-04-11 08:38 | 17.65806 | 83.21732 | 7407 ft | 317 kts | 93° |
| 2026-04-11 08:38 | 17.65655 | 83.24047 | 8393 ft | 319 kts | 90° |
| 2026-04-11 08:38 | 17.65585 | 83.26380 | 9412 ft | 321 kts | 89° |
| 2026-04-11 08:38 | 17.65526 | 83.28730 | 10343 ft | 326 kts | 92° |
| 2026-04-11 08:39 | 17.65417 | 83.30057 | 10794 ft | 330 kts | 94° |
| 2026-04-11 08:39 | 17.65416 | 83.30067 | 10798 ft | 330 kts | 94° |
| 2026-04-11 08:39 | 17.65175 | 83.32469 | 11624 ft | 336 kts | 94° |
| 2026-04-11 08:40 | 17.64836 | 83.34931 | 12480 ft | 342 kts | 102° |
| 2026-04-11 08:40 | 17.64230 | 83.37364 | 13363 ft | 347 kts | 104° |
| 2026-04-11 08:40 | 17.63584 | 83.39824 | 14183 ft | 351 kts | 105° |
| 2026-04-11 08:40 | 17.62926 | 83.42311 | 14990 ft | 355 kts | 104° |
| 2026-04-11 08:41 | 17.62268 | 83.44815 | 15811 ft | 358 kts | 104° |
| 2026-04-11 08:41 | 17.61635 | 83.47243 | 16640 ft | 360 kts | 104° |
| 2026-04-11 08:41 | 17.60977 | 83.49785 | 17508 ft | 361 kts | 103° |
| 2026-04-11 08:41 | 17.60329 | 83.52290 | 18356 ft | 361 kts | 103° |
| 2026-04-11 08:42 | 17.59668 | 83.54847 | 19026 ft | 366 kts | 103° |
| 2026-04-11 08:42 | 17.58997 | 83.57448 | 19589 ft | 373 kts | 104° |
| 2026-04-11 08:42 | 17.58311 | 83.60104 | 20058 ft | 384 kts | 104° |
| 2026-04-11 08:43 | 17.56877 | 83.65638 | 21011 ft | 402 kts | 104° |
| 2026-04-11 08:43 | 17.56135 | 83.68499 | 21501 ft | 410 kts | 104° |
| 2026-04-11 08:43 | 17.55380 | 83.71405 | 21998 ft | 417 kts | 104° |
| 2026-04-11 08:43 | 17.54611 | 83.74365 | 22500 ft | 423 kts | 104° |
| 2026-04-11 08:44 | 17.53834 | 83.77352 | 23021 ft | 429 kts | 105° |
| 2026-04-11 08:44 | 17.53044 | 83.80392 | 23519 ft | 434 kts | 105° |
| 2026-04-11 08:44 | 17.52247 | 83.83454 | 23956 ft | 438 kts | 105° |
| 2026-04-11 08:44 | 17.51444 | 83.86539 | 24397 ft | 441 kts | 105° |
| 2026-04-11 08:45 | 17.50631 | 83.89657 | 24844 ft | 444 kts | 105° |
| 2026-04-11 08:45 | 17.49815 | 83.92791 | 25295 ft | 446 kts | 105° |
| 2026-04-11 08:45 | 17.49029 | 83.95938 | 25754 ft | 447 kts | 104° |
| 2026-04-11 08:45 | 17.48269 | 83.99093 | 26223 ft | 447 kts | 104° |
| 2026-04-11 08:46 | 17.47513 | 84.02245 | 26698 ft | 446 kts | 104° |
| 2026-04-11 08:46 | 17.46783 | 84.05275 | 27159 ft | 446 kts | 104° |
| 2026-04-11 08:46 | 17.46022 | 84.08414 | 27648 ft | 445 kts | 104° |
| 2026-04-11 08:46 | 17.45256 | 84.11561 | 28150 ft | 443 kts | 104° |
| 2026-04-11 08:47 | 17.44501 | 84.14655 | 28656 ft | 442 kts | 104° |
| 2026-04-11 08:47 | 17.43742 | 84.17761 | 29175 ft | 440 kts | 104° |
| 2026-04-11 08:47 | 17.42983 | 84.20864 | 29674 ft | 439 kts | 104° |
| 2026-04-11 08:47 | 17.42225 | 84.23964 | 30054 ft | 440 kts | 104° |
| 2026-04-11 08:48 | 17.41462 | 84.27079 | 30394 ft | 442 kts | 104° |
| 2026-04-11 08:48 | 17.40697 | 84.30200 | 30739 ft | 443 kts | 104° |
| 2026-04-11 08:48 | 17.39931 | 84.33325 | 31090 ft | 444 kts | 104° |
| 2026-04-11 08:48 | 17.39163 | 84.36456 | 31439 ft | 445 kts | 104° |
| 2026-04-11 08:49 | 17.38389 | 84.39606 | 31706 ft | 449 kts | 104° |
| 2026-04-11 08:49 | 17.36818 | 84.45998 | 31885 ft | 464 kts | 104° |
| 2026-04-11 08:50 | 17.35186 | 84.52670 | 31898 ft | 482 kts | 104° |
| 2026-04-11 08:50 | 17.33566 | 84.59613 | 31897 ft | 499 kts | 103° |
| 2026-04-11 08:51 | 17.31896 | 84.66774 | 31898 ft | 512 kts | 104° |
| 2026-04-11 08:51 | 17.30208 | 84.73963 | 31897 ft | 518 kts | 104° |
| 2026-04-11 08:52 | 17.27603 | 84.85010 | 31896 ft | 523 kts | 104° |
| 2026-04-11 08:52 | 17.25855 | 84.92409 | 31896 ft | 525 kts | 104° |
| 2026-04-11 08:53 | 17.24110 | 84.99780 | 31899 ft | 525 kts | 104° |
| 2026-04-11 08:53 | 17.22378 | 85.07088 | 31898 ft | 511 kts | 104° |
| 2026-04-11 08:54 | 17.20658 | 85.14328 | 31895 ft | 512 kts | 104° |
| 2026-04-11 08:54 | 17.18939 | 85.21556 | 31897 ft | 512 kts | 104° |
| 2026-04-11 08:55 | 17.17212 | 85.28804 | 31976 ft | 512 kts | 104° |
| 2026-04-11 08:55 | 17.16357 | 85.32402 | 32214 ft | 511 kts | 103° |
| 2026-04-11 08:55 | 17.15533 | 85.35971 | 32451 ft | 509 kts | 103° |
| 2026-04-11 08:56 | 17.14718 | 85.39557 | 32697 ft | 508 kts | 103° |
| 2026-04-11 08:56 | 17.13935 | 85.43004 | 32931 ft | 507 kts | 103° |
| 2026-04-11 08:56 | 17.13116 | 85.46599 | 33187 ft | 506 kts | 103° |
| 2026-04-11 08:56 | 17.12297 | 85.50178 | 33434 ft | 505 kts | 103° |
| 2026-04-11 08:57 | 17.11478 | 85.53748 | 33691 ft | 504 kts | 103° |
| 2026-04-11 08:57 | 17.10661 | 85.57303 | 33939 ft | 503 kts | 103° |
| 2026-04-11 08:57 | 17.09843 | 85.60857 | 34164 ft | 502 kts | 103° |
| 2026-04-11 08:57 | 17.09026 | 85.64403 | 34387 ft | 501 kts | 103° |
| 2026-04-11 08:58 | 17.08211 | 85.67937 | 34600 ft | 500 kts | 103° |
| 2026-04-11 08:58 | 17.07395 | 85.71477 | 34817 ft | 499 kts | 104° |
| 2026-04-11 08:58 | 17.06581 | 85.75002 | 35047 ft | 498 kts | 104° |
| 2026-04-11 08:58 | 17.05771 | 85.78505 | 35277 ft | 497 kts | 104° |
| 2026-04-11 08:59 | 17.04970 | 85.81970 | 35516 ft | 496 kts | 104° |
| 2026-04-11 08:59 | 17.04158 | 85.85477 | 35745 ft | 495 kts | 104° |
| 2026-04-11 08:59 | 17.03349 | 85.88969 | 35984 ft | 494 kts | 104° |
| 2026-04-11 08:59 | 17.02541 | 85.92454 | 36224 ft | 493 kts | 104° |
| 2026-04-11 09:00 | 17.01736 | 85.95921 | 36468 ft | 491 kts | 104° |
| 2026-04-11 09:00 | 17.00929 | 85.99396 | 36715 ft | 490 kts | 104° |
| 2026-04-11 09:00 | 17.00125 | 86.02856 | 36964 ft | 489 kts | 104° |
| 2026-04-11 09:00 | 16.99325 | 86.06297 | 37215 ft | 487 kts | 104° |
| 2026-04-11 09:01 | 16.98524 | 86.09736 | 37470 ft | 485 kts | 104° |
| 2026-04-11 09:01 | 16.98027 | 86.11871 | 37627 ft | 484 kts | 104° |
| 2026-04-11 09:01 | 16.97231 | 86.15284 | 37891 ft | 483 kts | 104° |
| 2026-04-11 09:01 | 16.96437 | 86.18686 | 38153 ft | 481 kts | 104° |
| 2026-04-11 09:02 | 16.95645 | 86.22080 | 38422 ft | 479 kts | 104° |
| 2026-04-11 09:02 | 16.94857 | 86.25454 | 38671 ft | 477 kts | 104° |
| 2026-04-11 09:02 | 16.93817 | 86.29900 | 38852 ft | 477 kts | 104° |
| 2026-04-11 09:02 | 16.93292 | 86.32142 | 38900 ft | 478 kts | 104° |
| 2026-04-11 09:03 | 16.91700 | 86.38932 | 38894 ft | 484 kts | 104° |
| 2026-04-11 09:03 | 16.90092 | 86.45787 | 38895 ft | 487 kts | 104° |
| 2026-04-11 09:04 | 16.88474 | 86.52669 | 38892 ft | 488 kts | 104° |
| 2026-04-11 09:04 | 16.86853 | 86.59556 | 38900 ft | 488 kts | 104° |
| 2026-04-11 09:05 | 16.85233 | 86.66429 | 38896 ft | 487 kts | 104° |
| 2026-04-11 09:05 | 16.83611 | 86.73295 | 38896 ft | 486 kts | 104° |
| 2026-04-11 09:06 | 16.82019 | 86.80024 | 38901 ft | 486 kts | 105° |
| 2026-04-11 09:06 | 16.80394 | 86.86885 | 38906 ft | 486 kts | 105° |
| 2026-04-11 09:07 | 16.78770 | 86.93728 | 38901 ft | 485 kts | 105° |
| 2026-04-11 09:07 | 16.77144 | 87.00570 | 38893 ft | 485 kts | 105° |
| 2026-04-11 09:08 | 16.75517 | 87.07404 | 38894 ft | 485 kts | 105° |
| 2026-04-11 09:08 | 16.73891 | 87.14228 | 38894 ft | 485 kts | 105° |
| 2026-04-11 09:09 | 16.72281 | 87.21056 | 38894 ft | 484 kts | 104° |
| 2026-04-11 09:09 | 16.70691 | 87.27873 | 38903 ft | 484 kts | 104° |
| 2026-04-11 09:10 | 16.69103 | 87.34662 | 38902 ft | 484 kts | 104° |
| 2026-04-11 09:10 | 16.67501 | 87.41492 | 38892 ft | 484 kts | 104° |
| 2026-04-11 09:11 | 16.65936 | 87.48147 | 38901 ft | 484 kts | 104° |
| 2026-04-11 09:11 | 16.64329 | 87.54973 | 38898 ft | 483 kts | 104° |
| 2026-04-11 09:12 | 16.62722 | 87.61785 | 38897 ft | 483 kts | 104° |
| 2026-04-11 09:12 | 16.61124 | 87.68549 | 38903 ft | 484 kts | 104° |
| 2026-04-11 09:13 | 16.59515 | 87.75352 | 38904 ft | 483 kts | 104° |
| 2026-04-11 09:13 | 16.57901 | 87.82164 | 38895 ft | 483 kts | 104° |
| 2026-04-11 09:14 | 16.56289 | 87.88958 | 38901 ft | 483 kts | 104° |
| 2026-04-11 09:14 | 16.54670 | 87.95769 | 38896 ft | 483 kts | 104° |
| 2026-04-11 09:15 | 16.53065 | 88.02510 | 38901 ft | 483 kts | 104° |
| 2026-04-11 09:15 | 16.51445 | 88.09304 | 38897 ft | 483 kts | 105° |
| 2026-04-11 09:16 | 16.49853 | 88.15969 | 38906 ft | 483 kts | 105° |
| 2026-04-11 09:16 | 16.48227 | 88.22769 | 38899 ft | 483 kts | 105° |
| 2026-04-11 09:17 | 16.46601 | 88.29560 | 38896 ft | 483 kts | 105° |
| 2026-04-11 09:17 | 16.44973 | 88.36346 | 38903 ft | 483 kts | 104° |
| 2026-04-11 09:18 | 16.43356 | 88.43079 | 38896 ft | 482 kts | 104° |
| 2026-04-11 09:18 | 16.41722 | 88.49872 | 38894 ft | 482 kts | 105° |
| 2026-04-11 09:19 | 16.40087 | 88.56658 | 38890 ft | 482 kts | 105° |
| 2026-04-11 09:19 | 16.38452 | 88.63435 | 38906 ft | 482 kts | 105° |
| 2026-04-11 09:20 | 16.36810 | 88.70230 | 38899 ft | 482 kts | 105° |
| 2026-04-11 09:20 | 16.35181 | 88.76960 | 38893 ft | 482 kts | 105° |
| 2026-04-11 09:21 | 16.33572 | 88.83597 | 38898 ft | 482 kts | 105° |
| 2026-04-11 09:21 | 16.31927 | 88.90374 | 38896 ft | 482 kts | 105° |
| 2026-04-11 09:22 | 16.30281 | 88.97145 | 38887 ft | 482 kts | 105° |
| 2026-04-11 09:22 | 16.28636 | 89.03901 | 38889 ft | 482 kts | 105° |
| 2026-04-11 09:23 | 16.27005 | 89.10605 | 38904 ft | 482 kts | 104° |
| 2026-04-11 09:23 | 16.25405 | 89.17380 | 38891 ft | 482 kts | 104° |
| 2026-04-11 09:24 | 16.23813 | 89.24155 | 38886 ft | 482 kts | 104° |
| 2026-04-11 09:24 | 16.22212 | 89.30924 | 38896 ft | 481 kts | 104° |
| 2026-04-11 09:25 | 16.20606 | 89.37697 | 38886 ft | 482 kts | 104° |
| 2026-04-11 09:25 | 16.19010 | 89.44416 | 38890 ft | 482 kts | 104° |
| 2026-04-11 09:26 | 16.17418 | 89.51115 | 38893 ft | 482 kts | 104° |
| 2026-04-11 09:26 | 16.15893 | 89.57515 | 38895 ft | 482 kts | 104° |
| 2026-04-11 09:27 | 16.14276 | 89.64294 | 38893 ft | 482 kts | 104° |
| 2026-04-11 09:27 | 16.12659 | 89.71064 | 38886 ft | 482 kts | 104° |
| 2026-04-11 09:28 | 16.11041 | 89.77829 | 38901 ft | 483 kts | 104° |
| 2026-04-11 09:28 | 16.09430 | 89.84556 | 38894 ft | 482 kts | 104° |
| 2026-04-11 09:29 | 16.07804 | 89.91330 | 38887 ft | 483 kts | 104° |
| 2026-04-11 09:29 | 16.06175 | 89.98112 | 38903 ft | 483 kts | 104° |
| 2026-04-11 09:30 | 16.04546 | 90.04879 | 38892 ft | 482 kts | 104° |
| 2026-04-11 09:30 | 16.02913 | 90.11655 | 38884 ft | 483 kts | 104° |
| 2026-04-11 09:31 | 16.01314 | 90.18292 | 38887 ft | 482 kts | 104° |
| 2026-04-11 09:31 | 15.99738 | 90.25070 | 38886 ft | 483 kts | 104° |
| 2026-04-11 09:32 | 15.98171 | 90.31860 | 38892 ft | 483 kts | 104° |
| 2026-04-11 09:32 | 15.96594 | 90.38647 | 38890 ft | 482 kts | 104° |
| 2026-04-11 09:33 | 15.95013 | 90.45428 | 38898 ft | 483 kts | 104° |
| 2026-04-11 09:33 | 15.93440 | 90.52161 | 38882 ft | 482 kts | 104° |
| 2026-04-11 09:34 | 15.91857 | 90.58930 | 38884 ft | 482 kts | 104° |
| 2026-04-11 09:34 | 15.90269 | 90.65709 | 38881 ft | 482 kts | 104° |
| 2026-04-11 09:35 | 15.88684 | 90.72469 | 38886 ft | 482 kts | 104° |
| 2026-04-11 09:35 | 15.87094 | 90.79238 | 38891 ft | 482 kts | 104° |
| 2026-04-11 09:36 | 15.85525 | 90.85904 | 38897 ft | 482 kts | 104° |
| 2026-04-11 09:36 | 15.83939 | 90.92636 | 38883 ft | 482 kts | 104° |
| 2026-04-11 09:37 | 15.82337 | 90.99428 | 38882 ft | 482 kts | 104° |
| 2026-04-11 09:37 | 15.80751 | 91.06140 | 38883 ft | 481 kts | 104° |
| 2026-04-11 09:38 | 15.79152 | 91.12896 | 38890 ft | 482 kts | 104° |
| 2026-04-11 09:38 | 15.77548 | 91.19664 | 38892 ft | 482 kts | 104° |
| 2026-04-11 09:39 | 15.75944 | 91.26424 | 38885 ft | 482 kts | 104° |
| 2026-04-11 09:39 | 15.74339 | 91.33176 | 38889 ft | 482 kts | 104° |
| 2026-04-11 09:40 | 15.72733 | 91.39921 | 38890 ft | 481 kts | 104° |
| 2026-04-11 09:40 | 15.71120 | 91.46688 | 38883 ft | 482 kts | 104° |
| 2026-04-11 09:41 | 15.69528 | 91.53358 | 38885 ft | 481 kts | 104° |
| 2026-04-11 09:41 | 15.67929 | 91.60046 | 38886 ft | 481 kts | 104° |
| 2026-04-11 09:42 | 15.66316 | 91.66785 | 38883 ft | 481 kts | 104° |
| 2026-04-11 09:43 | 15.63893 | 91.76887 | 38886 ft | 481 kts | 104° |
| 2026-04-11 09:43 | 15.62278 | 91.83611 | 38887 ft | 480 kts | 104° |
| 2026-04-11 09:44 | 15.60658 | 91.90343 | 38887 ft | 480 kts | 104° |
| 2026-04-11 09:44 | 15.59039 | 91.97066 | 38886 ft | 480 kts | 104° |
| 2026-04-11 09:45 | 15.57415 | 92.03773 | 38887 ft | 480 kts | 104° |
| 2026-04-11 09:45 | 15.55767 | 92.10490 | 38896 ft | 480 kts | 104° |
| 2026-04-11 09:46 | 15.54131 | 92.17152 | 38880 ft | 480 kts | 104° |
| 2026-04-11 09:46 | 15.52528 | 92.23679 | 38892 ft | 478 kts | 104° |
| 2026-04-11 09:47 | 15.51158 | 92.29253 | 38881 ft | 479 kts | 104° |
| 2026-04-11 09:47 | 15.49514 | 92.35936 | 38879 ft | 479 kts | 104° |
| 2026-04-11 09:48 | 15.47864 | 92.42630 | 38880 ft | 478 kts | 104° |
| 2026-04-11 09:48 | 15.46215 | 92.49313 | 38882 ft | 478 kts | 104° |
| 2026-04-11 09:49 | 15.44564 | 92.55993 | 38886 ft | 479 kts | 104° |
| 2026-04-11 09:49 | 15.42913 | 92.62668 | 38892 ft | 478 kts | 104° |
| 2026-04-11 09:50 | 15.41404 | 92.69136 | 38885 ft | 478 kts | 103° |
| 2026-04-11 09:50 | 15.39922 | 92.75845 | 38880 ft | 477 kts | 103° |
| 2026-04-11 09:51 | 15.38437 | 92.82494 | 38886 ft | 477 kts | 103° |
| 2026-04-11 09:51 | 15.36952 | 92.89091 | 38895 ft | 477 kts | 103° |
| 2026-04-11 09:52 | 15.35439 | 92.95793 | 38879 ft | 477 kts | 103° |
| 2026-04-11 09:52 | 15.33925 | 93.02486 | 38876 ft | 477 kts | 103° |
| 2026-04-11 09:53 | 15.32409 | 93.09177 | 38880 ft | 476 kts | 103° |
| 2026-04-11 09:53 | 15.30894 | 93.15850 | 38893 ft | 476 kts | 103° |
| 2026-04-11 09:54 | 15.29374 | 93.22538 | 38873 ft | 476 kts | 103° |
| 2026-04-11 09:54 | 15.27866 | 93.29164 | 38874 ft | 476 kts | 103° |
| 2026-04-11 09:55 | 15.26334 | 93.35883 | 38873 ft | 476 kts | 103° |
| 2026-04-11 09:55 | 15.24821 | 93.42516 | 38874 ft | 476 kts | 103° |
| 2026-04-11 09:56 | 15.23296 | 93.49185 | 38874 ft | 475 kts | 103° |
| 2026-04-11 09:56 | 15.21799 | 93.55723 | 38880 ft | 476 kts | 103° |
| 2026-04-11 09:57 | 15.20272 | 93.62386 | 38872 ft | 475 kts | 103° |
| 2026-04-11 09:57 | 15.18743 | 93.69048 | 38877 ft | 476 kts | 103° |
| 2026-04-11 09:58 | 15.17220 | 93.75672 | 38872 ft | 475 kts | 103° |
| 2026-04-11 09:58 | 15.15689 | 93.82319 | 38870 ft | 475 kts | 103° |
| 2026-04-11 09:59 | 15.14187 | 93.88836 | 38873 ft | 475 kts | 103° |
| 2026-04-11 09:59 | 15.12649 | 93.95500 | 38876 ft | 475 kts | 103° |
| 2026-04-11 10:00 | 15.11110 | 94.02156 | 38875 ft | 475 kts | 103° |
| 2026-04-11 10:00 | 15.09569 | 94.08812 | 38868 ft | 475 kts | 103° |
| 2026-04-11 10:01 | 15.08026 | 94.15463 | 38872 ft | 475 kts | 103° |
| 2026-04-11 10:01 | 15.06500 | 94.22037 | 38873 ft | 475 kts | 103° |
| 2026-04-11 10:02 | 15.04954 | 94.28690 | 38866 ft | 475 kts | 103° |
| 2026-04-11 10:02 | 15.03417 | 94.35293 | 38866 ft | 475 kts | 103° |
| 2026-04-11 10:03 | 15.01869 | 94.41930 | 38869 ft | 474 kts | 103° |
| 2026-04-11 10:03 | 15.00321 | 94.48563 | 38862 ft | 474 kts | 103° |
| 2026-04-11 10:04 | 14.98770 | 94.55197 | 38878 ft | 474 kts | 104° |
| 2026-04-11 10:04 | 14.97218 | 94.61825 | 38874 ft | 474 kts | 104° |
| 2026-04-11 10:05 | 14.95667 | 94.68446 | 38865 ft | 474 kts | 104° |
| 2026-04-11 10:05 | 14.94112 | 94.75070 | 38863 ft | 473 kts | 104° |
| 2026-04-11 10:06 | 14.92559 | 94.81677 | 38866 ft | 473 kts | 104° |
| 2026-04-11 10:06 | 14.91028 | 94.88181 | 38865 ft | 473 kts | 104° |
| 2026-04-11 10:07 | 14.89472 | 94.94780 | 38856 ft | 473 kts | 104° |
| 2026-04-11 10:07 | 14.87913 | 95.01390 | 38867 ft | 472 kts | 104° |
| 2026-04-11 10:08 | 14.86352 | 95.07992 | 38856 ft | 472 kts | 104° |
| 2026-04-11 10:08 | 14.84802 | 95.14544 | 38859 ft | 472 kts | 104° |
| 2026-04-11 10:09 | 14.83241 | 95.21130 | 38869 ft | 472 kts | 104° |
| 2026-04-11 10:09 | 14.81676 | 95.27727 | 38867 ft | 472 kts | 104° |
| 2026-04-11 10:10 | 14.80111 | 95.34310 | 38872 ft | 472 kts | 104° |
| 2026-04-11 10:10 | 14.78545 | 95.40893 | 38856 ft | 472 kts | 104° |
| 2026-04-11 10:11 | 14.76973 | 95.47489 | 38858 ft | 472 kts | 104° |
| 2026-04-11 10:11 | 14.75416 | 95.54018 | 38866 ft | 472 kts | 104° |
| 2026-04-11 10:12 | 14.73844 | 95.60598 | 38864 ft | 471 kts | 104° |
| 2026-04-11 10:12 | 14.72272 | 95.67168 | 38857 ft | 471 kts | 104° |
| 2026-04-11 10:13 | 14.70696 | 95.73748 | 38857 ft | 471 kts | 104° |
| 2026-04-11 10:13 | 14.69118 | 95.80325 | 38857 ft | 471 kts | 104° |
| 2026-04-11 10:14 | 14.67552 | 95.86848 | 38860 ft | 471 kts | 104° |
| 2026-04-11 10:14 | 14.65972 | 95.93416 | 38864 ft | 470 kts | 104° |
| 2026-04-11 10:15 | 14.64396 | 95.99962 | 38857 ft | 470 kts | 104° |
| 2026-04-11 10:15 | 14.62812 | 96.06530 | 38856 ft | 470 kts | 104° |
| 2026-04-11 10:16 | 14.61231 | 96.13081 | 38856 ft | 470 kts | 104° |
| 2026-04-11 10:16 | 14.59676 | 96.19514 | 38863 ft | 470 kts | 104° |
| 2026-04-11 10:17 | 14.58092 | 96.26060 | 38863 ft | 469 kts | 104° |
| 2026-04-11 10:17 | 14.56518 | 96.32554 | 38858 ft | 469 kts | 104° |
| 2026-04-11 10:18 | 14.54921 | 96.39134 | 38860 ft | 469 kts | 104° |
| 2026-04-11 10:18 | 14.53341 | 96.45636 | 38867 ft | 469 kts | 104° |
| 2026-04-11 10:19 | 14.51754 | 96.52160 | 38862 ft | 469 kts | 104° |
| 2026-04-11 10:19 | 14.50163 | 96.58690 | 38868 ft | 469 kts | 104° |
| 2026-04-11 10:20 | 14.48571 | 96.65216 | 38858 ft | 469 kts | 104° |
| 2026-04-11 10:20 | 14.46978 | 96.71743 | 38864 ft | 469 kts | 104° |
| 2026-04-11 10:21 | 14.45391 | 96.78229 | 38861 ft | 469 kts | 104° |
| 2026-04-11 10:21 | 14.43824 | 96.84631 | 38865 ft | 468 kts | 104° |
| 2026-04-11 10:22 | 14.42225 | 96.91152 | 38865 ft | 469 kts | 104° |
| 2026-04-11 10:22 | 14.40624 | 96.97675 | 38857 ft | 469 kts | 104° |
| 2026-04-11 10:23 | 14.39020 | 97.04200 | 38870 ft | 469 kts | 104° |
| 2026-04-11 10:23 | 14.37416 | 97.10719 | 38863 ft | 469 kts | 104° |
| 2026-04-11 10:24 | 14.35812 | 97.17229 | 38864 ft | 469 kts | 104° |
| 2026-04-11 10:24 | 14.34204 | 97.23746 | 38853 ft | 469 kts | 104° |
| 2026-04-11 10:25 | 14.32595 | 97.30260 | 38866 ft | 469 kts | 104° |
| 2026-04-11 10:25 | 14.30985 | 97.36768 | 38863 ft | 469 kts | 104° |
| 2026-04-11 10:26 | 14.29372 | 97.43285 | 38855 ft | 469 kts | 104° |
| 2026-04-11 10:26 | 14.27779 | 97.49708 | 38860 ft | 469 kts | 104° |
| 2026-04-11 10:27 | 14.26162 | 97.56220 | 38858 ft | 468 kts | 104° |
| 2026-04-11 10:27 | 14.24544 | 97.62731 | 38859 ft | 469 kts | 105° |
| 2026-04-11 10:28 | 14.22932 | 97.69210 | 38855 ft | 469 kts | 105° |
| 2026-04-11 10:28 | 14.21308 | 97.75727 | 38863 ft | 469 kts | 105° |
| 2026-04-11 10:29 | 14.19684 | 97.82235 | 38863 ft | 469 kts | 105° |
| 2026-04-11 10:29 | 14.18055 | 97.88760 | 38856 ft | 469 kts | 105° |
| 2026-04-11 10:30 | 14.16705 | 97.94157 | 38852 ft | 468 kts | 105° |
| 2026-04-11 10:30 | 14.14804 | 98.01754 | 38857 ft | 468 kts | 105° |
| 2026-04-11 10:31 | 14.13451 | 98.07159 | 38863 ft | 468 kts | 105° |
| 2026-04-11 10:31 | 14.11576 | 98.14639 | 38863 ft | 468 kts | 105° |
| 2026-04-11 10:32 | 14.10267 | 98.20097 | 38870 ft | 468 kts | 100° |
| 2026-04-11 10:32 | 14.09667 | 98.26736 | 38858 ft | 468 kts | 94° |
| 2026-04-11 10:33 | 14.09255 | 98.33468 | 38856 ft | 468 kts | 94° |
| 2026-04-11 10:33 | 14.08858 | 98.39775 | 38866 ft | 467 kts | 94° |
| 2026-04-11 10:34 | 14.08435 | 98.46448 | 38857 ft | 466 kts | 94° |
| 2026-04-11 10:34 | 14.08223 | 98.49771 | 38751 ft | 463 kts | 94° |
| 2026-04-11 10:34 | 14.08018 | 98.52996 | 38469 ft | 453 kts | 94° |
| 2026-04-11 10:34 | 14.07809 | 98.56277 | 37928 ft | 448 kts | 94° |
| 2026-04-11 10:35 | 14.07605 | 98.59467 | 37404 ft | 444 kts | 94° |
| 2026-04-11 10:35 | 14.07402 | 98.62622 | 36893 ft | 439 kts | 94° |
| 2026-04-11 10:35 | 14.07201 | 98.65754 | 36378 ft | 435 kts | 94° |
| 2026-04-11 10:35 | 14.07001 | 98.68866 | 35696 ft | 436 kts | 94° |
| 2026-04-11 10:36 | 14.06799 | 98.71993 | 34994 ft | 438 kts | 94° |
| 2026-04-11 10:36 | 14.06604 | 98.75003 | 34325 ft | 440 kts | 94° |
| 2026-04-11 10:36 | 14.06400 | 98.78164 | 33615 ft | 442 kts | 94° |
| 2026-04-11 10:36 | 14.06195 | 98.81332 | 32852 ft | 443 kts | 94° |
| 2026-04-11 10:37 | 14.05989 | 98.84497 | 31948 ft | 448 kts | 94° |
| 2026-04-11 10:37 | 14.05777 | 98.87737 | 30995 ft | 454 kts | 94° |
| 2026-04-11 10:37 | 14.05567 | 98.90948 | 30081 ft | 459 kts | 93° |
| 2026-04-11 10:37 | 14.05392 | 98.94255 | 29046 ft | 463 kts | 90° |
| 2026-04-11 10:38 | 14.05533 | 98.97565 | 28027 ft | 466 kts | 83° |
| 2026-04-11 10:38 | 14.06044 | 99.00887 | 27031 ft | 468 kts | 77° |
| 2026-04-11 10:38 | 14.07616 | 99.07415 | 25151 ft | 470 kts | 76° |
| 2026-04-11 10:39 | 14.08391 | 99.10655 | 24733 ft | 459 kts | 76° |
| 2026-04-11 10:39 | 14.09138 | 99.13785 | 24533 ft | 442 kts | 76° |
| 2026-04-11 10:39 | 14.09860 | 99.16813 | 24229 ft | 430 kts | 76° |
| 2026-04-11 10:39 | 14.10570 | 99.19784 | 23691 ft | 425 kts | 76° |
| 2026-04-11 10:40 | 14.11275 | 99.22741 | 22981 ft | 425 kts | 76° |
| 2026-04-11 10:40 | 14.11981 | 99.25699 | 22212 ft | 424 kts | 76° |
| 2026-04-11 10:40 | 14.12688 | 99.28664 | 21464 ft | 436 kts | 76° |
| 2026-04-11 10:40 | 14.13444 | 99.31833 | 20727 ft | 475 kts | 76° |
| 2026-04-11 10:41 | 14.14233 | 99.35146 | 20017 ft | 474 kts | 76° |
| 2026-04-11 10:41 | 14.14996 | 99.38354 | 19333 ft | 466 kts | 76° |
| 2026-04-11 10:41 | 14.15902 | 99.41506 | 18667 ft | 458 kts | 69° |
| 2026-04-11 10:41 | 14.17060 | 99.44541 | 18203 ft | 446 kts | 68° |
| 2026-04-11 10:42 | 14.18158 | 99.47422 | 17982 ft | 429 kts | 68° |
| 2026-04-11 10:42 | 14.19206 | 99.50170 | 17840 ft | 454 kts | 68° |
| 2026-04-11 10:42 | 14.20396 | 99.53292 | 17767 ft | 478 kts | 68° |
| 2026-04-11 10:42 | 14.21503 | 99.56539 | 17774 ft | 472 kts | 72° |
| 2026-04-11 10:43 | 14.22792 | 99.62890 | 17185 ft | 436 kts | 84° |
| 2026-04-11 10:43 | 14.23011 | 99.66040 | 16840 ft | 453 kts | 87° |
| 2026-04-11 10:43 | 14.23125 | 99.69397 | 16592 ft | 482 kts | 89° |
| 2026-04-11 10:44 | 14.23175 | 99.72903 | 16715 ft | 497 kts | 90° |
| 2026-04-11 10:44 | 14.23143 | 99.76452 | 16721 ft | 485 kts | 91° |
| 2026-04-11 10:44 | 14.23082 | 99.79843 | 16421 ft | 463 kts | 91° |
| 2026-04-11 10:44 | 14.22998 | 99.83146 | 16054 ft | 471 kts | 92° |
| 2026-04-11 10:45 | 14.22863 | 99.86589 | 16091 ft | 490 kts | 92° |
| 2026-04-11 10:45 | 14.22640 | 99.90138 | 16351 ft | 496 kts | 95° |
| 2026-04-11 10:45 | 14.22351 | 99.93559 | 16445 ft | 465 kts | 95° |
| 2026-04-11 10:45 | 14.22069 | 99.96796 | 16320 ft | 441 kts | 95° |
| 2026-04-11 10:46 | 14.21797 | 99.99862 | 16247 ft | 419 kts | 95° |
| 2026-04-11 10:46 | 14.21536 | 100.02703 | 16168 ft | 399 kts | 96° |
| 2026-04-11 10:46 | 14.21273 | 100.05491 | 16079 ft | 381 kts | 96° |
| 2026-04-11 10:46 | 14.21010 | 100.08155 | 15878 ft | 369 kts | 96° |
| 2026-04-11 10:47 | 14.20725 | 100.10728 | 15788 ft | 354 kts | 97° |
| 2026-04-11 10:47 | 14.20390 | 100.13195 | 15638 ft | 342 kts | 99° |
| 2026-04-11 10:47 | 14.20018 | 100.15569 | 15518 ft | 329 kts | 100° |
| 2026-04-11 10:47 | 14.19633 | 100.17849 | 15367 ft | 319 kts | 101° |
| 2026-04-11 10:48 | 14.19231 | 100.20062 | 15255 ft | 307 kts | 101° |
| 2026-04-11 10:48 | 14.18827 | 100.22156 | 15131 ft | 297 kts | 102° |
| 2026-04-11 10:48 | 14.18405 | 100.24207 | 14989 ft | 287 kts | 103° |
| 2026-04-11 10:48 | 14.17974 | 100.26179 | 14836 ft | 278 kts | 103° |
| 2026-04-11 10:49 | 14.17533 | 100.28085 | 14675 ft | 270 kts | 104° |
| 2026-04-11 10:49 | 14.17058 | 100.30012 | 14545 ft | 296 kts | 105° |
| 2026-04-11 10:49 | 14.16488 | 100.32200 | 14494 ft | 336 kts | 106° |
| 2026-04-11 10:49 | 14.15819 | 100.34644 | 14479 ft | 372 kts | 107° |
| 2026-04-11 10:50 | 14.15137 | 100.37268 | 14068 ft | 379 kts | 104° |
| 2026-04-11 10:50 | 14.14486 | 100.39897 | 13710 ft | 391 kts | 105° |
| 2026-04-11 10:50 | 14.13750 | 100.42730 | 13467 ft | 428 kts | 105° |
| 2026-04-11 10:50 | 14.12927 | 100.45806 | 13202 ft | 455 kts | 106° |
| 2026-04-11 10:51 | 14.12081 | 100.48859 | 13023 ft | 433 kts | 107° |
| 2026-04-11 10:51 | 14.11259 | 100.51619 | 12645 ft | 419 kts | 108° |
| 2026-04-11 10:51 | 14.10416 | 100.54337 | 12288 ft | 405 kts | 108° |
| 2026-04-11 10:51 | 14.09534 | 100.57044 | 11930 ft | 392 kts | 110° |
| 2026-04-11 10:52 | 14.08608 | 100.59648 | 11505 ft | 382 kts | 111° |
| 2026-04-11 10:52 | 14.07584 | 100.62143 | 11029 ft | 375 kts | 117° |
| 2026-04-11 10:52 | 14.06353 | 100.64512 | 10265 ft | 377 kts | 119° |
| 2026-04-11 10:52 | 14.05086 | 100.66898 | 9415 ft | 382 kts | 119° |
| 2026-04-11 10:53 | 14.03802 | 100.69311 | 8505 ft | 385 kts | 119° |
| 2026-04-11 10:53 | 14.02509 | 100.71738 | 7666 ft | 386 kts | 119° |
| 2026-04-11 10:53 | 14.01142 | 100.74107 | 6909 ft | 384 kts | 123° |
| 2026-04-11 10:53 | 13.99498 | 100.76226 | 6512 ft | 371 kts | 136° |
| 2026-04-11 10:54 | 13.97493 | 100.77769 | 6372 ft | 352 kts | 151° |
| 2026-04-11 10:54 | 13.95267 | 100.79011 | 6014 ft | 386 kts | 153° |
| 2026-04-11 10:54 | 13.92743 | 100.80274 | 6008 ft | 415 kts | 156° |
| 2026-04-11 10:54 | 13.90034 | 100.81391 | 6441 ft | 427 kts | 161° |
| 2026-04-11 10:55 | 13.87213 | 100.81754 | 6815 ft | 398 kts | 186° |
| 2026-04-11 10:55 | 13.84807 | 100.80822 | 5818 ft | 344 kts | 219° |
| 2026-04-11 10:55 | 13.83320 | 100.79231 | 4248 ft | 284 kts | 226° |
| 2026-04-11 10:55 | 13.81929 | 100.77972 | 2765 ft | 249 kts | 215° |
| 2026-04-11 10:56 | 13.80472 | 100.77310 | 1732 ft | 214 kts | 194° |
| 2026-04-11 10:56 | 13.79116 | 100.76817 | 1293 ft | 201 kts | 202° |
| 2026-04-11 10:56 | 13.77841 | 100.76312 | 1014 ft | 190 kts | 197° |
| 2026-04-11 10:56 | 13.76615 | 100.75951 | 835 ft | 176 kts | 194° |
| 2026-04-11 10:57 | 13.75433 | 100.75651 | 647 ft | 174 kts | 194° |
| 2026-04-11 10:57 | 13.74286 | 100.75370 | 535 ft | 164 kts | 199° |
| 2026-04-11 10:57 | 13.73267 | 100.75040 | 466 ft | 145 kts | 195° |
| 2026-04-11 10:57 | 13.72300 | 100.74793 | 366 ft | 151 kts | 192° |
| 2026-04-11 10:58 | 13.71253 | 100.74540 | 175 ft | 152 kts | 193° |
| 2026-04-11 10:58 | 13.70273 | 100.74286 | 54 ft | 143 kts | 193° |
| 2026-04-11 10:58 | 13.69389 | 100.74063 | 11 ft | 105 kts | 193° |
| 2026-04-11 10:58 | 13.69034 | 100.73972 | 14 ft | 37 kts | 189° |
| 2026-04-11 10:59 | 13.68790 | 100.73986 | 15 ft | 34 kts | 166° |
| 2026-04-11 10:59 | 13.68731 | 100.74077 | 14 ft | 6 kts | 53° |
| 2026-04-11 10:59 | 13.68757 | 100.74083 | 14 ft | 6 kts | 11° |
| 2026-04-11 10:59 | 13.68830 | 100.74143 | 14 ft | 16 kts | 75° |
| 2026-04-11 11:00 | 13.68788 | 100.74319 | 13 ft | 33 kts | 102° |
| 2026-04-11 11:00 | 13.68925 | 100.74426 | 13 ft | 31 kts | 16° |
| 2026-04-11 11:00 | 13.69065 | 100.74486 | 13 ft | 1 kts | 57° |
| 2026-04-11 11:00 | 13.69059 | 100.74557 | 13 ft | 18 kts | 107° |
| 2026-04-11 11:01 | 13.69053 | 100.74582 | 13 ft | 0 kts | 103° |